createdAt,value
2022-09-20T00:01:33.559Z,10.80
2022-09-20T00:04:05.531Z,10.70
2022-09-20T00:06:34.471Z,10.70
2022-09-20T00:09:03.577Z,10.70
2022-09-20T00:11:34.828Z,10.70
2022-09-20T00:14:06.121Z,10.70
2022-09-20T00:16:38.079Z,10.70
2022-09-20T00:19:07.294Z,10.70
2022-09-20T00:21:37.744Z,10.60
2022-09-20T00:24:06.097Z,10.60
2022-09-20T00:26:33.904Z,10.50
2022-09-20T00:29:01.705Z,10.60
2022-09-20T00:31:29.513Z,10.50
2022-09-20T00:34:17.703Z,10.50
2022-09-20T00:36:45.517Z,10.50
2022-09-20T00:39:15.613Z,10.50
2022-09-20T00:41:44.011Z,10.50
2022-09-20T00:44:49.976Z,10.50
2022-09-20T00:47:28.784Z,10.50
2022-09-20T00:50:08.732Z,10.50
2022-09-20T00:52:37.017Z,10.50
2022-09-20T00:55:08.782Z,10.40
2022-09-20T00:57:38.705Z,10.40
2022-09-20T01:00:11.917Z,10.40
2022-09-20T01:02:46.254Z,10.40
2022-09-20T01:05:16.289Z,10.30
2022-09-20T01:07:47.046Z,10.30
2022-09-20T01:10:14.689Z,10.30
2022-09-20T01:12:44.374Z,10.30
2022-09-20T01:15:15.581Z,10.30
2022-09-20T01:17:48.530Z,10.30
2022-09-20T01:20:30.106Z,10.20
2022-09-20T01:23:31.637Z,10.30
2022-09-20T01:26:05.479Z,10.30
2022-09-20T01:28:33.939Z,10.20
2022-09-20T01:31:26.716Z,10.20
2022-09-20T01:34:21.755Z,10.20
2022-09-20T01:36:53.334Z,10.20
2022-09-20T01:39:42.667Z,10.10
2022-09-20T01:42:13.550Z,10.20
2022-09-20T01:45:23.995Z,10.10
2022-09-20T01:48:04.922Z,10.10
2022-09-20T01:51:02.112Z,10.00
2022-09-20T01:54:00.862Z,9.90
2022-09-20T01:56:59.457Z,9.90
2022-09-20T02:00:06.163Z,9.90
2022-09-20T02:02:54.011Z,9.80
2022-09-20T02:05:43.292Z,9.70
2022-09-20T02:08:28.243Z,9.70
2022-09-20T02:11:12.454Z,9.70
2022-09-20T02:13:40.150Z,9.60
2022-09-20T02:16:32.039Z,9.70
2022-09-20T02:19:32.673Z,9.70
2022-09-20T02:22:40.783Z,9.80
2022-09-20T02:26:11.111Z,9.70
2022-09-20T02:28:58.943Z,9.70
2022-09-20T02:32:16.946Z,9.70
2022-09-20T02:35:25.688Z,9.70
2022-09-20T02:38:06.530Z,9.70
2022-09-20T02:41:23.610Z,9.70
2022-09-20T02:44:15.184Z,9.60
2022-09-20T02:47:18.015Z,9.60
2022-09-20T02:50:09.708Z,9.60
2022-09-20T02:53:00.634Z,9.60
2022-09-20T02:56:12.446Z,9.60
2022-09-20T02:59:41.833Z,9.70
2022-09-20T03:02:56.905Z,9.70
2022-09-20T03:05:33.166Z,9.70
2022-09-20T03:08:15.731Z,9.70
2022-09-20T03:11:06.601Z,9.70
2022-09-20T03:14:23.124Z,9.70
2022-09-20T03:17:18.302Z,9.70
2022-09-20T03:20:35.773Z,9.70
2022-09-20T03:23:24.759Z,9.70
2022-09-20T03:26:08.110Z,9.70
2022-09-20T03:29:04.253Z,9.60
2022-09-20T03:31:56.128Z,9.60
2022-09-20T03:34:42.217Z,9.60
2022-09-20T03:37:30.719Z,9.60
2022-09-20T03:40:29.695Z,9.50
2022-09-20T03:43:34.347Z,9.40
2022-09-20T03:46:14.345Z,9.40
2022-09-20T03:49:32.538Z,9.30
2022-09-20T03:52:41.464Z,9.30
2022-09-20T03:55:49.786Z,9.30
2022-09-20T03:59:09.035Z,9.20
2022-09-20T04:02:32.832Z,9.20
2022-09-20T04:05:10.583Z,9.20
2022-09-20T04:08:08.198Z,9.10
2022-09-20T04:11:12.924Z,9.10
2022-09-20T04:13:51.606Z,9.10
2022-09-20T04:17:31.570Z,9.10
2022-09-20T04:20:09.783Z,9.10
2022-09-20T04:22:38.562Z,9.10
2022-09-20T04:25:20.005Z,9.10
2022-09-20T04:27:52.787Z,9.10
2022-09-20T04:30:28.959Z,9.10
2022-09-20T04:33:13.819Z,9.00
2022-09-20T04:36:15.495Z,9.00
2022-09-20T04:38:43.642Z,9.00
2022-09-20T04:41:33.957Z,9.00
2022-09-20T04:44:38.919Z,9.00
2022-09-20T04:47:40.223Z,9.00
2022-09-20T04:51:18.439Z,8.90
2022-09-20T04:54:35.005Z,8.90
2022-09-20T04:57:32.909Z,8.90
2022-09-20T05:00:15.342Z,8.90
2022-09-20T05:03:11.196Z,8.90
2022-09-20T05:05:56.020Z,9.00
2022-09-20T05:09:04.027Z,8.90
2022-09-20T05:11:54.511Z,8.90
2022-09-20T05:15:05.270Z,8.90
2022-09-20T05:18:06.420Z,8.90
2022-09-20T05:20:49.545Z,8.90
2022-09-20T05:23:38.286Z,8.90
2022-09-20T05:26:13.143Z,8.90
2022-09-20T05:29:17.627Z,8.90
2022-09-20T05:31:55.012Z,8.90
2022-09-20T05:34:33.426Z,8.90
2022-09-20T05:37:17.357Z,8.90
2022-09-20T05:40:31.775Z,8.90
2022-09-20T05:43:26.406Z,8.80
2022-09-20T05:46:32.510Z,8.90
2022-09-20T05:49:14.633Z,8.90
2022-09-20T05:51:57.447Z,8.90
2022-09-20T05:55:04.577Z,9.00
2022-09-20T05:57:50.827Z,9.00
2022-09-20T06:00:21.646Z,9.10
2022-09-20T06:03:36.877Z,9.10
2022-09-20T06:06:18.178Z,9.10
2022-09-20T06:09:13.564Z,9.10
2022-09-20T06:12:20.246Z,9.10
2022-09-20T06:15:17.135Z,9.10
2022-09-20T06:18:24.134Z,9.10
2022-09-20T06:20:55.124Z,9.20
2022-09-20T06:23:23.374Z,9.20
2022-09-20T06:26:06.728Z,9.20
2022-09-20T06:28:41.970Z,9.20
2022-09-20T06:31:11.390Z,9.30
2022-09-20T06:34:05.965Z,9.30
2022-09-20T06:37:05.839Z,9.40
2022-09-20T06:40:04.559Z,9.50
2022-09-20T06:42:32.717Z,9.50
2022-09-20T06:45:00.456Z,9.60
2022-09-20T06:47:28.247Z,9.60
2022-09-20T06:49:56.703Z,9.60
2022-09-20T06:52:24.551Z,9.60
2022-09-20T06:54:55.599Z,9.70
2022-09-20T06:57:37.842Z,9.70
2022-09-20T07:00:10.192Z,9.80
2022-09-20T07:02:38.012Z,9.80
2022-09-20T07:05:07.569Z,9.90
2022-09-20T07:07:35.185Z,9.90
2022-09-20T07:10:03.092Z,10.00
2022-09-20T07:12:35.022Z,10.00
2022-09-20T07:15:03.410Z,10.00
2022-09-20T07:17:31.010Z,10.10
2022-09-20T07:19:59.189Z,10.10
2022-09-20T07:22:27.929Z,10.10
2022-09-20T07:24:55.585Z,10.20
2022-09-20T07:27:26.385Z,10.20
2022-09-20T07:29:56.623Z,10.20
2022-09-20T07:32:24.301Z,10.20
2022-09-20T07:34:51.957Z,10.30
2022-09-20T07:37:19.988Z,10.30
2022-09-20T07:39:47.596Z,10.40
2022-09-20T07:42:15.313Z,10.40
2022-09-20T07:44:43.353Z,10.50
2022-09-20T07:47:11.394Z,10.50
2022-09-20T07:49:39.226Z,10.50
2022-09-20T07:52:07.795Z,10.60
2022-09-20T07:54:35.391Z,10.60
2022-09-20T07:57:05.646Z,10.70
2022-09-20T07:59:33.428Z,10.70
2022-09-20T08:02:01.181Z,10.80
2022-09-20T08:04:28.846Z,10.80
2022-09-20T08:06:57.624Z,10.90
2022-09-20T08:09:25.240Z,11.00
2022-09-20T08:11:53.197Z,11.00
2022-09-20T08:14:21.609Z,11.10
2022-09-20T08:16:50.440Z,11.20
2022-09-20T08:19:21.670Z,11.30
2022-09-20T08:21:52.626Z,11.30
2022-09-20T08:24:20.510Z,11.40
2022-09-20T08:26:48.665Z,11.50
2022-09-20T08:29:16.429Z,11.60
2022-09-20T08:31:44.482Z,11.60
2022-09-20T08:34:15.045Z,11.70
2022-09-20T08:36:51.871Z,11.80
2022-09-20T08:42:37.843Z,12.00
2022-09-20T08:45:23.438Z,12.10
2022-09-20T08:48:06.697Z,12.20
2022-09-20T08:50:34.686Z,12.30
2022-09-20T08:53:04.963Z,12.30
2022-09-20T08:55:37.510Z,12.40
2022-09-20T08:58:08.862Z,12.50
2022-09-20T09:00:39.273Z,12.60
2022-09-20T09:03:13.010Z,12.60
2022-09-20T09:05:58.222Z,12.70
2022-09-20T09:08:31.037Z,12.80
2022-09-20T09:11:19.191Z,12.80
2022-09-20T09:14:31.477Z,12.90
2022-09-20T09:17:00.905Z,13.00
2022-09-20T09:19:34.052Z,13.00
2022-09-20T09:22:05.539Z,13.00
2022-09-20T09:24:33.319Z,13.10
2022-09-20T09:27:20.117Z,13.10
2022-09-20T09:29:55.141Z,13.10
2022-09-20T09:32:32.848Z,13.20
2022-09-20T09:35:29.431Z,13.30
2022-09-20T09:38:01.678Z,13.30
2022-09-20T09:40:31.775Z,13.40
2022-09-20T09:43:02.807Z,13.40
2022-09-20T09:45:38.847Z,13.40
2022-09-20T09:48:26.836Z,13.40
2022-09-20T09:51:15.409Z,13.50
2022-09-20T09:53:44.994Z,13.60
2022-09-20T09:56:59.573Z,13.60
2022-09-20T10:00:20.008Z,13.60
2022-09-20T10:03:11.722Z,13.80
2022-09-20T10:06:17.495Z,13.90
2022-09-20T10:09:00.438Z,13.90
2022-09-20T10:12:04.318Z,13.90
2022-09-20T10:14:56.398Z,13.80
2022-09-20T10:17:54.235Z,13.80
2022-09-20T10:20:46.886Z,13.80
2022-09-20T10:24:01.555Z,13.70
2022-09-20T10:27:07.029Z,13.60
2022-09-20T10:30:02.011Z,13.60
2022-09-20T10:32:49.987Z,13.60
2022-09-20T10:35:25.065Z,13.50
2022-09-20T10:38:26.339Z,13.40
2022-09-20T10:41:37.188Z,13.30
2022-09-20T10:44:19.782Z,13.30
2022-09-20T10:47:14.541Z,13.40
2022-09-20T10:50:09.868Z,13.50
2022-09-20T10:53:09.201Z,13.60
2022-09-20T10:56:08.392Z,13.70
2022-09-20T10:58:54.233Z,13.80
2022-09-20T11:02:13.348Z,13.80
2022-09-20T11:05:28.577Z,13.90
2022-09-20T11:08:29.149Z,14.00
2022-09-20T11:11:12.449Z,14.10
2022-09-20T11:13:54.447Z,14.10
2022-09-20T11:16:48.766Z,14.10
2022-09-20T11:19:34.750Z,14.10
2022-09-20T11:22:13.442Z,14.20
2022-09-20T11:25:06.339Z,14.20
2022-09-20T11:27:41.985Z,14.30
2022-09-20T11:30:22.883Z,14.40
2022-09-20T11:33:05.410Z,14.40
2022-09-20T11:35:55.352Z,14.40
2022-09-20T11:38:36.850Z,14.20
2022-09-20T11:41:25.862Z,14.00
2022-09-20T11:44:00.620Z,14.00
2022-09-20T11:46:38.806Z,13.80
2022-09-20T11:50:00.153Z,13.60
2022-09-20T11:53:08.388Z,13.60
2022-09-20T11:56:17.289Z,13.50
2022-09-20T11:59:01.051Z,13.60
2022-09-20T12:01:41.774Z,13.50
2022-09-20T12:04:38.985Z,13.60
2022-09-20T12:07:35.041Z,13.60
2022-09-20T12:10:22.067Z,13.60
2022-09-20T12:12:59.598Z,13.70
2022-09-20T12:15:41.898Z,13.70
2022-09-20T12:18:29.269Z,13.70
2022-09-20T12:21:18.452Z,13.70
2022-09-20T12:24:00.480Z,13.80
2022-09-20T12:26:28.073Z,13.90
2022-09-20T12:29:02.523Z,13.80
2022-09-20T12:31:32.150Z,13.90
2022-09-20T12:34:26.126Z,13.90
2022-09-20T12:36:53.844Z,14.00
2022-09-20T12:39:34.779Z,14.00
2022-09-20T12:42:28.345Z,14.20
2022-09-20T12:45:08.203Z,14.30
2022-09-20T12:47:38.207Z,14.30
2022-09-20T12:50:33.477Z,14.40
2022-09-20T12:53:12.620Z,14.50
2022-09-20T12:55:54.989Z,14.60
2022-09-20T12:58:28.569Z,14.70
2022-09-20T13:00:59.453Z,14.80
2022-09-20T13:03:45.512Z,14.90
2022-09-20T13:06:17.504Z,14.90
2022-09-20T13:09:00.105Z,14.90
2022-09-20T13:11:52.630Z,15.00
2022-09-20T13:14:31.365Z,15.00
2022-09-20T13:17:13.857Z,15.00
2022-09-20T13:19:50.819Z,15.10
2022-09-20T13:22:26.026Z,15.10
2022-09-20T13:24:59.980Z,15.10
2022-09-20T13:27:34.661Z,15.20
2022-09-20T13:30:26.951Z,15.20
2022-09-20T13:32:55.338Z,15.20
2022-09-20T13:35:28.026Z,15.30
2022-09-20T13:38:02.078Z,15.40
2022-09-20T13:40:43.106Z,15.50
2022-09-20T13:43:49.375Z,15.50
2022-09-20T13:46:44.784Z,15.60
2022-09-20T13:49:20.777Z,15.60
2022-09-20T13:51:49.235Z,15.60
2022-09-20T13:54:32.731Z,15.70
2022-09-20T13:57:15.561Z,15.80
2022-09-20T13:59:46.782Z,15.90
2022-09-20T14:02:32.623Z,16.10
2022-09-20T14:05:07.439Z,16.20
2022-09-20T14:07:36.842Z,16.40
2022-09-20T14:10:05.225Z,16.50
2022-09-20T14:12:33.974Z,16.70
2022-09-20T14:15:08.649Z,16.70
2022-09-20T14:17:36.666Z,16.70
2022-09-20T14:20:05.964Z,16.70
2022-09-20T14:22:33.843Z,16.70
2022-09-20T14:25:25.388Z,16.80
2022-09-20T14:28:19.823Z,16.80
2022-09-20T14:30:48.542Z,16.80
2022-09-20T14:33:21.305Z,16.70
2022-09-20T14:35:52.864Z,16.80
2022-09-20T14:38:26.217Z,17.00
2022-09-20T14:40:54.412Z,17.00
2022-09-20T14:43:33.882Z,17.10
2022-09-20T14:46:18.294Z,17.20
2022-09-20T14:48:45.983Z,17.20
2022-09-20T14:51:17.962Z,17.10
2022-09-20T14:53:48.675Z,17.10
2022-09-20T14:56:27.067Z,17.20
2022-09-20T14:59:25.967Z,17.00
2022-09-20T15:02:10.306Z,16.70
2022-09-20T15:04:40.156Z,16.50
2022-09-20T15:07:11.818Z,16.30
2022-09-20T15:09:39.650Z,16.30
2022-09-20T15:12:14.502Z,16.40
2022-09-20T15:14:42.418Z,16.30
2022-09-20T15:17:21.875Z,16.20
2022-09-20T15:19:50.159Z,16.20
2022-09-20T15:22:17.981Z,16.20
2022-09-20T15:24:45.809Z,16.30
2022-09-20T15:27:13.485Z,16.30
2022-09-20T15:29:41.168Z,16.30
2022-09-20T15:32:12.263Z,16.40
2022-09-20T15:34:40.216Z,16.40
2022-09-20T15:37:08.007Z,16.40
2022-09-20T15:39:35.694Z,16.30
2022-09-20T15:42:04.043Z,16.30
2022-09-20T15:44:32.760Z,16.30
2022-09-20T15:47:00.468Z,16.20
2022-09-20T15:49:28.786Z,16.20
2022-09-20T15:51:57.136Z,16.10
2022-09-20T15:54:26.722Z,16.10
2022-09-20T15:56:54.346Z,16.10
2022-09-20T15:59:23.400Z,16.10
2022-09-20T16:01:51.738Z,16.00
2022-09-20T16:04:20.363Z,16.00
2022-09-20T16:06:50.169Z,16.00
2022-09-20T16:09:19.171Z,15.90
2022-09-20T16:11:48.279Z,15.80
2022-09-20T16:14:17.493Z,15.80
2022-09-20T16:16:45.181Z,15.70
2022-09-20T16:19:20.770Z,15.70
2022-09-20T16:21:58.565Z,15.70
2022-09-20T16:24:33.228Z,15.70
2022-09-20T16:27:03.628Z,15.70
2022-09-20T16:29:32.314Z,15.70
2022-09-20T16:32:03.618Z,15.60
2022-09-20T16:34:34.955Z,15.60
2022-09-20T16:37:08.876Z,15.60
2022-09-20T16:39:36.583Z,15.50
2022-09-20T16:42:07.567Z,15.50
2022-09-20T16:44:37.533Z,15.50
2022-09-20T16:47:10.653Z,15.50
2022-09-20T16:49:39.645Z,15.50
2022-09-20T16:52:11.206Z,15.50
2022-09-20T16:54:41.004Z,15.40
2022-09-20T16:57:09.800Z,15.50
2022-09-20T16:59:37.365Z,15.40
2022-09-20T17:02:05.009Z,15.40
2022-09-20T17:04:32.711Z,15.40
2022-09-20T17:07:00.632Z,15.40
2022-09-20T17:09:28.855Z,15.30
2022-09-20T17:11:56.483Z,15.30
2022-09-20T17:14:24.988Z,15.20
2022-09-20T17:16:52.652Z,15.20
2022-09-20T17:19:21.156Z,15.20
2022-09-20T17:21:51.443Z,15.10
2022-09-20T17:24:21.528Z,15.00
2022-09-20T17:26:50.842Z,15.00
2022-09-20T17:29:20.223Z,14.90
2022-09-20T17:31:55.698Z,14.90
2022-09-20T17:34:25.515Z,14.80
2022-09-20T17:36:54.987Z,14.80
2022-09-20T17:39:23.230Z,14.80
2022-09-20T17:42:06.988Z,14.70
2022-09-20T17:44:37.533Z,14.60
2022-09-20T17:47:06.321Z,14.60
2022-09-20T17:49:34.796Z,14.50
2022-09-20T17:52:02.376Z,14.50
2022-09-20T17:54:32.353Z,14.40
2022-09-20T17:57:00.213Z,14.30
2022-09-20T17:59:28.497Z,14.30
2022-09-20T18:01:56.095Z,14.20
2022-09-20T18:04:26.863Z,14.10
2022-09-20T18:06:55.615Z,14.10
2022-09-20T18:09:27.106Z,14.10
2022-09-20T18:11:55.907Z,14.00
2022-09-20T18:14:27.546Z,13.90
2022-09-20T18:17:00.824Z,13.90
2022-09-20T18:19:33.263Z,13.90
2022-09-20T18:22:02.608Z,13.80
2022-09-20T18:24:31.613Z,13.80
2022-09-20T18:27:00.768Z,13.70
2022-09-20T18:29:29.308Z,13.70
2022-09-20T18:31:57.950Z,13.60
2022-09-20T18:34:33.283Z,13.60
2022-09-20T18:37:03.689Z,13.60
2022-09-20T18:39:34.875Z,13.50
2022-09-20T18:42:03.863Z,13.40
2022-09-20T18:44:33.911Z,13.40
2022-09-20T18:47:03.874Z,13.40
2022-09-20T18:49:32.429Z,13.30
2022-09-20T18:52:00.236Z,13.30
2022-09-20T18:54:33.248Z,13.30
2022-09-20T18:57:01.423Z,13.30
2022-09-20T18:59:29.773Z,13.30
2022-09-20T19:02:52.089Z,13.30
2022-09-20T19:05:55.686Z,13.20
2022-09-20T19:08:35.035Z,13.10
2022-09-20T19:11:11.464Z,13.10
2022-09-20T19:14:00.703Z,13.00
2022-09-20T19:16:34.352Z,13.00
2022-09-20T19:20:03.080Z,12.90
2022-09-20T19:23:16.281Z,12.90
2022-09-20T19:25:47.524Z,12.80
2022-09-20T19:28:16.505Z,12.80
2022-09-20T19:30:45.567Z,12.70
2022-09-20T19:33:18.767Z,12.70
2022-09-20T19:35:51.471Z,12.70
2022-09-20T19:38:51.940Z,12.70
2022-09-20T19:41:50.994Z,12.60
2022-09-20T19:44:36.322Z,12.60
2022-09-20T19:47:48.440Z,12.60
2022-09-20T19:50:28.079Z,12.50
2022-09-20T19:52:56.427Z,12.50
2022-09-20T19:55:24.874Z,12.50
2022-09-20T19:57:53.441Z,12.50
2022-09-20T20:00:21.930Z,12.40
2022-09-20T20:02:50.438Z,12.30
2022-09-20T20:05:25.568Z,12.30
2022-09-20T20:08:21.142Z,12.30
2022-09-20T20:11:09.978Z,12.30
2022-09-20T20:14:04.230Z,12.20
2022-09-20T20:17:05.081Z,12.20
2022-09-20T20:19:48.332Z,12.20
2022-09-20T20:22:35.689Z,12.10
2022-09-20T20:25:04.303Z,12.10
2022-09-20T20:27:32.612Z,12.10
2022-09-20T20:30:00.349Z,12.00
2022-09-20T20:32:28.125Z,12.00
2022-09-20T20:34:55.679Z,12.00
2022-09-20T20:37:24.580Z,12.00
2022-09-20T20:39:52.205Z,11.90
2022-09-20T20:42:21.008Z,11.90
2022-09-20T20:44:48.633Z,11.90
2022-09-20T20:47:16.227Z,11.90
2022-09-20T20:49:43.962Z,11.90
2022-09-20T20:52:12.531Z,11.80
2022-09-20T20:54:40.208Z,11.80
2022-09-20T20:57:07.819Z,11.70
2022-09-20T20:59:35.386Z,11.80
2022-09-20T21:02:07.628Z,11.70
2022-09-20T21:04:36.989Z,11.70
2022-09-20T21:07:04.636Z,11.60
2022-09-20T21:09:32.218Z,11.60
2022-09-20T21:11:59.922Z,11.60
2022-09-20T21:14:27.506Z,11.50
2022-09-20T21:16:55.151Z,11.60
2022-09-20T21:19:23.927Z,11.50
2022-09-20T21:21:51.571Z,11.50
2022-09-20T21:24:19.302Z,11.50
2022-09-20T21:26:47.543Z,11.50
2022-09-20T21:29:16.662Z,11.40
2022-09-20T21:31:47.007Z,11.40
2022-09-20T21:34:16.399Z,11.40
2022-09-20T21:36:45.051Z,11.40
2022-09-20T21:39:13.155Z,11.40
2022-09-20T21:41:41.526Z,11.40
2022-09-20T21:44:12.551Z,11.40
2022-09-20T21:46:48.876Z,11.40
2022-09-20T21:49:16.700Z,11.40
2022-09-20T21:51:45.225Z,11.30
2022-09-20T21:54:13.122Z,11.30
2022-09-20T21:56:41.507Z,11.30
2022-09-20T21:59:09.702Z,11.30
2022-09-20T22:01:40.353Z,11.30
2022-09-20T22:04:10.923Z,11.20
2022-09-20T22:06:44.353Z,11.20
2022-09-20T22:09:15.854Z,11.20
2022-09-20T22:11:46.540Z,11.20
2022-09-20T22:14:17.461Z,11.20
2022-09-20T22:16:47.585Z,11.20
2022-09-20T22:19:17.234Z,11.30
2022-09-20T22:21:48.253Z,11.30
2022-09-20T22:24:17.557Z,11.30
2022-09-20T22:26:49.161Z,11.30
2022-09-20T22:29:17.885Z,11.40
2022-09-20T22:31:47.961Z,11.40
2022-09-20T22:34:23.813Z,11.50
2022-09-20T22:36:52.495Z,11.50
2022-09-20T22:39:20.340Z,11.50
2022-09-20T22:41:48.334Z,11.50
2022-09-20T22:44:16.462Z,11.50
2022-09-20T22:46:44.496Z,11.40
2022-09-20T22:49:12.845Z,11.40
2022-09-20T22:51:40.901Z,11.50
2022-09-20T22:54:11.593Z,11.50
2022-09-20T22:56:43.382Z,11.50
2022-09-20T22:59:14.209Z,11.50
2022-09-20T23:01:47.719Z,11.50
2022-09-20T23:04:19.275Z,11.50
2022-09-20T23:06:54.585Z,11.50
2022-09-20T23:09:26.617Z,11.50
2022-09-20T23:11:54.576Z,11.40
2022-09-20T23:14:23.262Z,11.40
2022-09-20T23:35:27.526Z,11.50
2022-09-20T23:37:56.408Z,11.50
2022-09-20T23:40:24.349Z,11.50
2022-09-20T23:42:52.188Z,11.50
2022-09-20T23:45:19.981Z,11.50
2022-09-20T23:47:48.331Z,11.60
2022-09-20T23:50:16.321Z,11.60
2022-09-20T23:52:44.127Z,11.60
2022-09-20T23:55:12.105Z,11.50
2022-09-20T23:57:40.115Z,11.50
